Time;durP1;ratioP1;P1;durP2;ratioP2;P2;SDS_P1;SDS_P2;PMS_P1;PMS_P2;Temp;Humidity;BMP_temperature;BMP_pressure;BME280_temperature;BME280_humidity;BME280_pressure;Samples;Min_cycle;Max_cycle;Signal;HPM_P1;HPM_P2
2022/06/07 00:00:44;;;;;;;17.73;13.40;;;12.70;99.90;;;;;;5038989;28;20052;-62
2022/06/07 00:03:10;;;;;;;17.50;12.93;;;12.70;99.90;;;;;;5036988;28;20071;-62
2022/06/07 00:05:40;;;;;;;16.40;13.57;;;12.70;99.90;;;;;;5037361;28;20029;-63
2022/06/07 00:08:06;;;;;;;15.05;12.23;;;12.70;99.90;;;;;;5018585;28;20474;-62
2022/06/07 00:10:33;;;;;;;17.35;12.98;;;12.80;99.90;;;;;;5038510;28;20042;-64
2022/06/07 00:12:59;;;;;;;17.55;11.80;;;12.80;99.90;;;;;;5038770;28;20535;-62
2022/06/07 00:15:26;;;;;;;17.58;11.93;;;12.80;99.90;;;;;;5037792;28;20033;-61
2022/06/07 00:17:51;;;;;;;18.67;11.80;;;12.80;99.90;;;;;;5034859;28;20152;-62
2022/06/07 00:20:18;;;;;;;14.18;11.05;;;12.80;99.90;;;;;;5037732;28;20124;-63
2022/06/07 00:22:44;;;;;;;16.33;11.80;;;12.80;99.90;;;;;;5036365;28;20045;-62
2022/06/07 00:25:12;;;;;;;17.00;12.43;;;12.80;99.90;;;;;;5038157;28;20041;-62
2022/06/07 00:27:38;;;;;;;17.50;12.50;;;12.80;99.90;;;;;;5037072;28;20029;-63
2022/06/07 00:30:05;;;;;;;19.88;11.70;;;12.80;99.90;;;;;;5036451;28;20046;-63
2022/06/07 00:32:32;;;;;;;18.25;12.38;;;12.80;99.90;;;;;;5037902;28;20357;-62
2022/06/07 00:34:57;;;;;;;17.92;12.32;;;12.80;99.90;;;;;;5037466;27;20049;-64
2022/06/07 00:37:23;;;;;;;17.38;12.63;;;12.90;99.90;;;;;;5035592;28;20050;-62
2022/06/07 00:39:49;;;;;;;16.90;12.73;;;12.80;99.90;;;;;;5004627;28;20616;-63
2022/06/07 00:42:15;;;;;;;17.50;13.57;;;12.90;99.90;;;;;;5037159;28;20335;-62
2022/06/07 00:44:44;;;;;;;15.55;13.32;;;12.80;99.90;;;;;;5036725;28;20082;-62
2022/06/07 00:47:11;;;;;;;17.83;14.10;;;12.80;99.90;;;;;;5032675;28;20048;-62
2022/06/07 00:49:59;;;;;;;16.85;13.32;;;12.80;99.90;;;;;;5036915;28;20450;-62
2022/06/07 00:52:28;;;;;;;16.63;13.15;;;12.90;99.90;;;;;;5044208;28;20045;-62
2022/06/07 00:54:55;;;;;;;18.98;14.82;;;12.90;99.90;;;;;;5037324;28;20033;-62
2022/06/07 00:57:21;;;;;;;16.88;13.30;;;12.80;99.90;;;;;;5016326;28;20042;-64
2022/06/07 00:59:47;;;;;;;15.43;12.40;;;12.90;99.90;;;;;;5037959;28;20034;-62
2022/06/07 01:02:13;;;;;;;17.95;12.20;;;12.90;99.90;;;;;;5037953;28;20033;-62
2022/06/07 01:04:39;;;;;;;18.05;12.40;;;13.00;99.90;;;;;;5037138;28;20532;-63
2022/06/07 01:12:34;;;;;;;18.73;13.27;;;12.90;99.90;;;;;;5034631;28;20124;-63
2022/06/07 01:15:00;;;;;;;14.52;11.07;;;12.90;99.90;;;;;;5036466;28;20121;-62
2022/06/07 01:17:26;;;;;;;15.18;11.88;;;13.00;99.90;;;;;;5034899;28;20101;-62
2022/06/07 01:19:52;;;;;;;16.05;11.35;;;13.10;99.90;;;;;;5037383;28;20479;-63
2022/06/07 01:22:19;;;;;;;15.52;11.63;;;13.00;99.90;;;;;;5019964;28;20462;-63
2022/06/07 01:24:45;;;;;;;15.55;11.00;;;13.10;99.90;;;;;;5037510;28;20024;-63
2022/06/07 01:27:11;;;;;;;16.70;11.43;;;13.00;99.90;;;;;;5033905;28;20854;-62
2022/06/07 01:29:38;;;;;;;16.73;11.35;;;13.10;99.90;;;;;;5035525;28;20358;-62
2022/06/07 01:32:04;;;;;;;21.05;11.18;;;13.10;99.90;;;;;;5035289;28;20041;-63
2022/06/07 01:34:30;;;;;;;14.35;10.77;;;13.10;99.90;;;;;;5034843;28;20045;-63
2022/06/07 01:36:57;;;;;;;14.38;10.35;;;13.10;99.90;;;;;;5018112;28;20052;-62
2022/06/07 01:42:09;;;;;;;16.60;10.98;;;13.10;99.90;;;;;;5037330;28;20033;-63
2022/06/07 01:44:47;;;;;;;16.80;11.32;;;13.10;99.90;;;;;;5036069;28;20370;-62
2022/06/07 01:47:16;;;;;;;15.05;11.23;;;13.10;99.90;;;;;;5031872;28;20045;-63
2022/06/07 01:49:41;;;;;;;16.05;11.32;;;13.10;99.90;;;;;;5036729;28;20069;-63
2022/06/07 01:52:09;;;;;;;15.63;12.02;;;13.10;99.90;;;;;;5034801;28;20087;-63
2022/06/07 01:54:35;;;;;;;16.42;12.05;;;13.10;99.90;;;;;;5036252;28;20037;-63
2022/06/07 01:57:00;;;;;;;14.90;11.35;;;13.10;99.90;;;;;;5036546;28;20094;-63
2022/06/07 01:59:26;;;;;;;14.45;11.38;;;13.10;99.90;;;;;;5035285;28;20474;-62
2022/06/07 02:01:52;;;;;;;16.67;11.15;;;13.00;99.90;;;;;;5036474;28;20346;-63
2022/06/07 02:04:18;;;;;;;15.73;11.18;;;13.00;99.90;;;;;;5036394;28;20112;-63
2022/06/07 02:06:44;;;;;;;17.73;11.25;;;13.10;99.90;;;;;;5034050;28;20198;-64
2022/06/07 02:09:10;;;;;;;17.25;10.63;;;13.10;99.90;;;;;;5019432;28;20040;-64
2022/06/07 02:11:38;;;;;;;14.05;10.88;;;13.00;99.90;;;;;;5035938;28;20037;-62
2022/06/07 02:14:05;;;;;;;15.65;11.60;;;13.00;99.90;;;;;;5017319;28;20041;-63
2022/06/07 02:16:31;;;;;;;13.10;10.15;;;13.10;99.90;;;;;;5031520;28;20041;-62
2022/06/07 02:18:56;;;;;;;15.45;10.55;;;13.10;99.90;;;;;;5035946;28;20090;-61
2022/06/07 02:21:23;;;;;;;13.90;11.20;;;13.10;99.90;;;;;;5034814;28;20041;-62
2022/06/07 02:23:49;;;;;;;18.55;11.68;;;13.00;99.90;;;;;;5034010;28;20461;-62
2022/06/07 02:26:25;;;;;;;14.88;11.10;;;13.10;99.90;;;;;;5034083;28;20045;-62
2022/06/07 02:29:19;;;;;;;15.25;10.57;;;13.00;99.90;;;;;;5034102;28;20425;-64
2022/06/07 02:31:51;;;;;;;14.40;10.25;;;13.10;99.90;;;;;;5036204;28;20037;-62
2022/06/07 02:34:18;;;;;;;13.85;10.65;;;13.10;99.90;;;;;;5036537;28;20056;-62
2022/06/07 02:36:47;;;;;;;15.13;10.32;;;13.10;99.90;;;;;;5038603;28;20361;-62
2022/06/07 02:39:13;;;;;;;15.65;10.57;;;13.10;99.90;;;;;;5019040;28;20109;-62
2022/06/07 02:41:41;;;;;;;15.90;10.35;;;13.10;99.90;;;;;;5037258;28;20044;-63
2022/06/07 02:44:07;;;;;;;14.63;9.98;;;13.10;99.90;;;;;;5019874;28;20094;-62
2022/06/07 02:46:32;;;;;;;14.73;10.18;;;13.10;99.90;;;;;;5037018;28;20042;-62
2022/06/07 02:48:58;;;;;;;13.30;9.85;;;13.10;99.90;;;;;;5038621;28;20059;-62
2022/06/07 02:51:24;;;;;;;17.13;10.32;;;13.10;99.90;;;;;;5040291;28;20049;-63
2022/06/07 02:53:49;;;;;;;16.67;11.05;;;13.10;99.90;;;;;;5040048;28;20045;-62
2022/06/07 02:56:15;;;;;;;14.82;10.85;;;13.10;99.90;;;;;;5039124;28;20481;-62
2022/06/07 02:58:41;;;;;;;17.85;11.48;;;13.10;99.90;;;;;;5039371;28;20380;-63
2022/06/07 03:01:07;;;;;;;16.30;10.57;;;13.10;99.90;;;;;;5037277;28;20059;-63
2022/06/07 03:03:33;;;;;;;14.57;10.60;;;13.10;99.90;;;;;;5039160;28;20029;-62
2022/06/07 03:05:58;;;;;;;15.50;10.20;;;13.10;99.90;;;;;;5021610;28;20069;-62
2022/06/07 03:08:24;;;;;;;18.00;11.32;;;13.10;99.90;;;;;;5037503;28;20049;-62
2022/06/07 03:10:50;;;;;;;15.13;11.10;;;13.10;99.90;;;;;;5039295;28;20116;-62
2022/06/07 03:13:17;;;;;;;13.98;10.88;;;13.10;99.90;;;;;;5020818;28;20128;-63
2022/06/07 03:15:43;;;;;;;15.40;10.88;;;13.10;99.90;;;;;;5036767;28;20082;-63
2022/06/07 03:18:10;;;;;;;14.27;11.05;;;13.10;99.90;;;;;;5036862;28;20041;-63
2022/06/07 03:20:37;;;;;;;15.15;11.15;;;13.10;99.90;;;;;;5038581;28;20033;-63
2022/06/07 03:23:03;;;;;;;16.80;11.93;;;13.00;99.90;;;;;;5037372;28;20081;-63
2022/06/07 03:25:30;;;;;;;15.75;11.20;;;13.00;99.90;;;;;;5034323;28;20477;-62
2022/06/07 03:27:56;;;;;;;14.68;10.93;;;13.00;99.90;;;;;;5038183;28;20048;-63
2022/06/07 03:30:21;;;;;;;16.05;11.68;;;13.00;99.90;;;;;;5037221;28;20041;-64
2022/06/07 03:32:47;;;;;;;14.85;11.45;;;13.00;99.90;;;;;;5039311;28;20052;-63
2022/06/07 03:35:15;;;;;;;20.05;11.65;;;12.90;99.90;;;;;;5038306;28;20109;-63
2022/06/07 03:37:41;;;;;;;14.68;10.90;;;13.00;99.90;;;;;;5035699;28;20697;-63
2022/06/07 03:40:09;;;;;;;16.45;10.95;;;13.00;99.90;;;;;;5039247;28;20041;-63
2022/06/07 03:42:35;;;;;;;17.67;12.02;;;13.00;99.90;;;;;;5020282;28;20515;-63
2022/06/07 03:45:01;;;;;;;14.75;10.50;;;13.00;99.90;;;;;;5037038;28;20138;-64
2022/06/07 03:47:26;;;;;;;17.20;11.50;;;13.00;99.90;;;;;;5021078;28;20108;-63
2022/06/07 03:49:52;;;;;;;15.25;10.32;;;13.00;99.90;;;;;;5037396;28;20037;-64
2022/06/07 03:52:19;;;;;;;14.98;10.02;;;13.00;99.90;;;;;;5037065;28;20051;-63
2022/06/07 03:54:45;;;;;;;15.48;11.15;;;13.00;99.90;;;;;;5038191;28;20048;-64
2022/06/07 03:57:12;;;;;;;14.55;10.93;;;13.00;99.90;;;;;;5037928;28;20465;-63
2022/06/07 03:59:38;;;;;;;15.18;10.90;;;13.00;99.90;;;;;;5039040;28;20062;-63
2022/06/07 04:02:09;;;;;;;16.17;10.43;;;12.90;99.90;;;;;;5038724;28;20067;-63
2022/06/07 04:04:35;;;;;;;14.02;10.98;;;12.90;99.90;;;;;;5037649;28;20052;-63
2022/06/07 04:09:45;;;;;;;15.65;10.90;;;13.00;99.90;;;;;;5062724;28;20461;-63
2022/06/07 04:12:14;;;;;;;15.13;10.43;;;13.00;99.90;;;;;;5063909;28;20345;-62
2022/06/07 04:14:41;;;;;;;19.08;11.00;;;13.00;99.90;;;;;;5044933;28;20045;-63
2022/06/07 04:17:08;;;;;;;18.98;11.10;;;13.00;99.90;;;;;;5033286;28;20048;-63
2022/06/07 04:19:36;;;;;;;17.15;11.00;;;13.00;99.90;;;;;;5014643;28;20044;-63
2022/06/07 04:22:03;;;;;;;15.90;11.70;;;13.00;99.90;;;;;;5038422;27;20030;-64
2022/06/07 04:24:29;;;;;;;16.58;11.25;;;13.00;99.90;;;;;;5051728;28;20091;-64
2022/06/07 04:26:55;;;;;;;16.17;11.38;;;13.00;99.90;;;;;;5049455;28;20446;-63
2022/06/07 04:29:20;;;;;;;15.95;11.70;;;13.10;99.90;;;;;;5033704;28;20037;-63
2022/06/07 04:31:46;;;;;;;17.45;11.13;;;13.10;99.90;;;;;;5047657;28;20041;-63
2022/06/07 04:34:12;;;;;;;14.52;11.20;;;13.10;99.90;;;;;;5037821;27;20057;-63
2022/06/07 04:36:38;;;;;;;17.48;11.38;;;13.10;99.90;;;;;;5018604;28;20052;-62
2022/06/07 04:39:06;;;;;;;19.38;12.45;;;13.10;99.90;;;;;;5038912;28;20051;-62
2022/06/07 04:41:31;;;;;;;15.55;11.07;;;13.10;99.90;;;;;;5035792;28;20044;-64
2022/06/07 04:43:57;;;;;;;16.70;11.93;;;13.20;99.90;;;;;;5040875;28;20025;-65
2022/06/07 04:46:25;;;;;;;15.10;10.95;;;13.20;99.90;;;;;;5019578;28;20041;-62
2022/06/07 04:48:52;;;;;;;15.07;11.68;;;13.30;99.90;;;;;;5046756;28;20357;-62
2022/06/07 04:51:20;;;;;;;15.20;11.18;;;13.30;99.90;;;;;;5063891;27;20024;-65
2022/06/07 04:53:47;;;;;;;15.95;11.80;;;13.30;99.90;;;;;;5065966;28;20346;-65
2022/06/07 04:56:19;;;;;;;16.83;12.23;;;13.30;99.90;;;;;;5019116;28;20053;-64
2022/06/07 04:58:45;;;;;;;16.35;11.65;;;13.30;99.90;;;;;;5038013;28;20029;-64
2022/06/07 05:01:18;;;;;;;15.00;11.27;;;13.30;99.90;;;;;;5032139;28;20098;-64
2022/06/07 05:03:44;;;;;;;17.55;11.55;;;13.30;99.90;;;;;;5040581;28;20780;-63
2022/06/07 05:06:30;;;;;;;19.75;11.73;;;13.30;99.90;;;;;;5066998;28;20041;-64
2022/06/07 05:09:06;;;;;;;16.13;10.93;;;13.40;99.90;;;;;;5042444;28;20098;-63
2022/06/07 05:11:32;;;;;;;17.02;12.52;;;13.50;99.90;;;;;;5049100;28;20047;-65
2022/06/07 05:14:02;;;;;;;18.27;11.55;;;13.40;99.90;;;;;;5046950;28;20233;-63
2022/06/07 05:16:29;;;;;;;15.80;12.43;;;13.50;99.90;;;;;;5036030;28;20072;-63
2022/06/07 05:18:55;;;;;;;18.63;12.88;;;13.50;99.90;;;;;;5019151;28;20041;-62
2022/06/07 05:21:23;;;;;;;16.85;11.73;;;13.50;99.90;;;;;;5040065;28;20038;-64
2022/06/07 05:23:50;;;;;;;18.67;11.88;;;13.50;99.90;;;;;;5047990;28;20049;-64
2022/06/07 05:26:33;;;;;;;15.55;11.50;;;13.60;99.90;;;;;;5017923;28;20045;-64
2022/06/07 05:28:59;;;;;;;19.70;12.70;;;13.60;99.90;;;;;;5035641;28;20052;-65
2022/06/07 05:31:25;;;;;;;21.10;12.07;;;13.60;99.90;;;;;;5017777;28;20049;-65
2022/06/07 05:33:52;;;;;;;15.98;11.45;;;13.70;99.90;;;;;;5106840;27;20037;-66
2022/06/07 05:36:19;;;;;;;18.85;12.68;;;13.70;99.90;;;;;;5035088;28;20044;-66
2022/06/07 05:38:45;;;;;;;17.52;11.90;;;13.80;99.90;;;;;;5037452;28;20121;-65
2022/06/07 05:41:29;;;;;;;17.00;12.32;;;13.70;99.90;;;;;;5035634;28;20124;-63
2022/06/07 05:43:56;;;;;;;17.00;12.98;;;13.70;99.90;;;;;;5034873;28;20125;-65
2022/06/07 05:46:22;;;;;;;16.75;11.38;;;13.70;99.90;;;;;;5015968;28;20168;-64
2022/06/07 05:48:48;;;;;;;17.02;11.60;;;13.80;99.90;;;;;;5036621;28;20029;-65
2022/06/07 05:51:14;;;;;;;15.68;11.73;;;13.80;99.90;;;;;;5017591;28;20089;-65
2022/06/07 05:53:40;;;;;;;19.83;12.38;;;13.80;99.90;;;;;;5034799;28;20124;-64
2022/06/07 05:56:07;;;;;;;18.80;11.98;;;13.80;99.90;;;;;;5033406;28;20454;-65
2022/06/07 05:58:34;;;;;;;17.90;12.00;;;13.80;99.90;;;;;;5035258;28;20071;-64
2022/06/07 06:00:59;;;;;;;17.98;12.07;;;13.80;99.90;;;;;;5037165;28;20120;-64
2022/06/07 06:03:25;;;;;;;16.83;11.35;;;13.70;99.90;;;;;;5037166;28;20408;-65
2022/06/07 06:05:51;;;;;;;16.77;11.73;;;13.70;99.90;;;;;;5035867;28;20102;-66
2022/06/07 06:11:13;;;;;;;18.02;11.85;;;13.70;99.90;;;;;;5035540;28;20099;-64
2022/06/07 06:13:39;;;;;;;14.85;11.20;;;13.70;99.90;;;;;;5034768;28;20498;-64
2022/06/07 06:16:09;;;;;;;14.75;10.63;;;13.60;99.90;;;;;;5034313;28;20038;-64
2022/06/07 06:18:35;;;;;;;17.08;11.40;;;13.70;99.90;;;;;;5039184;28;20033;-65
2022/06/07 06:21:00;;;;;;;22.27;12.77;;;13.80;99.90;;;;;;5038748;28;20098;-64
2022/06/07 06:23:26;;;;;;;17.38;10.48;;;13.70;99.90;;;;;;5022668;28;20474;-64
2022/06/07 06:25:52;;;;;;;17.90;11.30;;;13.70;99.90;;;;;;5022002;28;20041;-65
2022/06/07 06:28:18;;;;;;;16.20;11.85;;;13.70;99.90;;;;;;5037239;28;20061;-64
2022/06/07 06:30:48;;;;;;;19.90;11.35;;;13.80;99.90;;;;;;5040509;28;20060;-65
2022/06/07 06:33:14;;;;;;;16.95;12.07;;;13.70;99.90;;;;;;5019431;28;20065;-64
2022/06/07 06:35:47;;;;;;;16.98;11.48;;;13.70;99.90;;;;;;5037907;27;20053;-65
2022/06/07 06:38:14;;;;;;;15.90;10.57;;;13.80;99.90;;;;;;5019068;28;20079;-64
2022/06/07 06:40:40;;;;;;;15.15;10.23;;;13.70;99.90;;;;;;5039805;28;20045;-65
2022/06/07 06:43:05;;;;;;;19.88;10.68;;;13.70;99.90;;;;;;5037822;28;20442;-64
2022/06/07 06:45:31;;;;;;;16.13;10.73;;;13.80;99.90;;;;;;5038883;28;20159;-64
2022/06/07 06:47:57;;;;;;;20.42;12.15;;;13.80;99.90;;;;;;5019899;28;20045;-64
2022/06/07 06:50:22;;;;;;;15.57;10.00;;;13.80;99.90;;;;;;5040088;28;20033;-64
2022/06/07 06:52:48;;;;;;;15.10;9.18;;;13.80;99.90;;;;;;5022458;28;20444;-64
2022/06/07 06:55:14;;;;;;;19.48;10.18;;;13.90;99.90;;;;;;5005844;28;20468;-64
2022/06/07 06:57:40;;;;;;;16.90;10.90;;;13.90;99.90;;;;;;5036759;28;20051;-64
2022/06/07 07:00:09;;;;;;;17.85;10.30;;;13.90;99.90;;;;;;5039576;28;20037;-65
2022/06/07 07:02:34;;;;;;;19.33;10.10;;;13.90;99.90;;;;;;5038645;28;20044;-65
2022/06/07 07:05:00;;;;;;;22.40;10.27;;;13.90;99.90;;;;;;5037790;28;20037;-66
2022/06/07 07:07:26;;;;;;;15.98;9.43;;;13.90;99.90;;;;;;5039521;28;20357;-65
2022/06/07 07:09:55;;;;;;;18.27;9.75;;;13.90;99.90;;;;;;5020375;28;20040;-65
2022/06/07 07:12:21;;;;;;;18.25;9.63;;;13.90;99.90;;;;;;5037697;28;20041;-65
2022/06/07 07:14:48;;;;;;;17.23;9.40;;;13.90;99.90;;;;;;5039064;28;20040;-67
2022/06/07 07:17:14;;;;;;;17.45;9.73;;;13.90;99.90;;;;;;5036558;28;20049;-65
2022/06/07 07:19:39;;;;;;;18.13;10.43;;;13.90;99.90;;;;;;5021526;28;20041;-65
2022/06/07 07:22:05;;;;;;;17.45;10.30;;;13.80;99.90;;;;;;5039198;28;20121;-64
2022/06/07 07:24:32;;;;;;;15.52;9.82;;;13.80;99.90;;;;;;5037912;28;20362;-64
2022/06/07 07:26:58;;;;;;;18.50;9.48;;;13.90;99.90;;;;;;5036841;28;20060;-65
2022/06/07 07:29:24;;;;;;;19.77;10.00;;;13.90;99.90;;;;;;5037496;28;20368;-66
2022/06/07 07:31:51;;;;;;;17.23;9.40;;;13.90;99.90;;;;;;5039259;28;20401;-65
2022/06/07 07:34:18;;;;;;;22.85;9.32;;;14.00;99.90;;;;;;5039121;28;20053;-64
2022/06/07 07:36:50;;;;;;;17.20;8.30;;;14.00;99.90;;;;;;5035785;28;20045;-65
2022/06/07 07:39:16;;;;;;;12.57;7.43;;;14.00;99.90;;;;;;5037946;28;20149;-65
2022/06/07 07:41:48;;;;;;;15.73;6.65;;;14.00;99.90;;;;;;5037317;28;20029;-65
2022/06/07 07:44:16;;;;;;;13.25;6.93;;;14.10;99.90;;;;;;5035648;28;20052;-65
2022/06/07 07:46:43;;;;;;;14.77;7.28;;;14.00;99.90;;;;;;5036491;28;20439;-64
2022/06/07 07:49:12;;;;;;;13.07;7.22;;;14.00;99.90;;;;;;5017004;28;20045;-66
2022/06/07 07:51:40;;;;;;;14.73;7.40;;;14.00;99.90;;;;;;5109579;27;20037;-64
2022/06/07 07:54:10;;;;;;;13.27;7.65;;;14.10;99.90;;;;;;5021437;28;20037;-64
2022/06/07 07:56:36;;;;;;;18.40;7.43;;;14.20;99.90;;;;;;5018512;28;20041;-64
2022/06/07 07:59:02;;;;;;;14.85;7.32;;;14.20;99.90;;;;;;5021408;28;20374;-65
2022/06/07 08:01:29;;;;;;;12.45;7.78;;;14.20;99.90;;;;;;5036830;28;20396;-64
2022/06/07 08:03:58;;;;;;;10.88;7.07;;;14.20;99.90;;;;;;5020508;28;20116;-65
2022/06/07 08:06:27;;;;;;;15.70;7.68;;;14.20;99.90;;;;;;5018221;28;20128;-65
2022/06/07 08:08:54;;;;;;;14.77;7.10;;;14.20;99.90;;;;;;5038785;28;20060;-65
2022/06/07 08:11:24;;;;;;;13.85;8.25;;;14.20;99.90;;;;;;5038349;28;20109;-65
2022/06/07 08:13:50;;;;;;;17.85;8.20;;;14.20;99.90;;;;;;5036149;28;20048;-65
2022/06/07 08:16:16;;;;;;;19.55;8.02;;;14.20;99.90;;;;;;5017427;28;20049;-65
2022/06/07 08:18:42;;;;;;;17.77;8.30;;;14.20;99.90;;;;;;5038141;28;20048;-65
2022/06/07 08:21:13;;;;;;;14.95;7.05;;;14.20;99.90;;;;;;5036524;28;20120;-65
2022/06/07 08:23:40;;;;;;;13.98;7.75;;;14.20;99.90;;;;;;5037464;28;20358;-66
2022/06/07 08:26:07;;;;;;;19.50;9.23;;;14.30;99.90;;;;;;5037517;28;20034;-67
2022/06/07 08:28:33;;;;;;;12.88;7.30;;;14.30;99.90;;;;;;5020496;28;20097;-67
2022/06/07 08:30:59;;;;;;;14.23;7.50;;;14.30;99.90;;;;;;5003707;28;20086;-66
2022/06/07 08:39:00;;;;;;;13.50;7.97;;;14.40;99.90;;;;;;5018005;28;20049;-67
2022/06/07 08:41:31;;;;;;;16.95;8.57;;;14.40;99.90;;;;;;5018452;28;20540;-67
2022/06/07 08:44:08;;;;;;;16.00;8.38;;;14.40;99.90;;;;;;5037366;28;20102;-67
2022/06/07 08:46:36;;;;;;;16.95;8.80;;;14.40;99.90;;;;;;5032964;28;20045;-67
2022/06/07 08:49:04;;;;;;;17.40;8.23;;;14.40;99.90;;;;;;5038087;28;20045;-68
2022/06/07 08:51:46;;;;;;;15.55;8.82;;;14.40;99.90;;;;;;5035581;28;20064;-66
2022/06/07 08:54:17;;;;;;;16.50;9.65;;;14.40;99.90;;;;;;5036058;28;20041;-67
2022/06/07 08:56:44;;;;;;;16.00;8.68;;;14.40;99.90;;;;;;5018349;28;20380;-65
2022/06/07 08:59:15;;;;;;;16.30;7.38;;;14.50;99.90;;;;;;5018234;28;20069;-66
2022/06/07 09:01:50;;;;;;;17.67;8.07;;;14.60;99.90;;;;;;5037261;28;20467;-66
2022/06/07 09:04:15;;;;;;;12.90;7.30;;;14.60;99.90;;;;;;5034668;28;20038;-66
2022/06/07 09:06:46;;;;;;;13.15;7.20;;;14.60;99.90;;;;;;5035684;28;20055;-65
2022/06/07 09:09:13;;;;;;;13.23;7.05;;;14.60;99.90;;;;;;5015808;28;20382;-66
2022/06/07 09:12:09;;;;;;;10.25;6.13;;;14.70;99.90;;;;;;5107173;27;20414;-65
2022/06/07 09:14:42;;;;;;;10.82;5.80;;;14.70;99.90;;;;;;5034207;28;20037;-66
2022/06/07 09:17:40;;;;;;;9.97;5.53;;;14.90;99.90;;;;;;5034021;28;20509;-66
2022/06/07 09:20:16;;;;;;;13.77;4.95;;;14.90;99.90;;;;;;5036672;28;20400;-65
2022/06/07 09:22:58;;;;;;;11.40;5.40;;;15.20;99.90;;;;;;5036672;28;20569;-65
2022/06/07 09:25:34;;;;;;;14.60;4.93;;;15.30;99.90;;;;;;5036416;28;20041;-66
2022/06/07 09:28:03;;;;;;;12.25;4.57;;;15.40;99.90;;;;;;5034255;28;20074;-66
2022/06/07 09:30:36;;;;;;;11.60;5.22;;;15.40;99.90;;;;;;5037418;28;20038;-67
2022/06/07 09:33:20;;;;;;;10.13;5.05;;;15.40;99.90;;;;;;5037289;28;20060;-65
2022/06/07 09:35:48;;;;;;;11.50;4.90;;;15.30;99.90;;;;;;5018356;28;20133;-65
2022/06/07 09:38:28;;;;;;;10.88;5.00;;;15.30;99.90;;;;;;5034217;28;20050;-66
2022/06/07 09:40:56;;;;;;;8.75;5.03;;;15.20;99.90;;;;;;5035178;28;20441;-67
2022/06/07 09:43:27;;;;;;;9.57;5.07;;;15.10;99.90;;;;;;5036807;28;20474;-65
2022/06/07 09:45:57;;;;;;;9.00;4.28;;;15.00;99.90;;;;;;5034695;28;20029;-67
2022/06/07 09:48:37;;;;;;;10.90;4.80;;;15.00;99.90;;;;;;5033661;28;20041;-66
2022/06/07 09:51:22;;;;;;;14.80;5.72;;;14.90;99.90;;;;;;5034956;28;20113;-65
2022/06/07 09:54:07;;;;;;;;;;;14.80;99.90;;;;;;5019703;28;20049;-66
2022/06/07 09:57:11;;;;;;;15.13;5.85;;;14.80;99.90;;;;;;5039900;28;20012;-66
2022/06/07 10:00:06;;;;;;;13.57;5.13;;;14.90;99.90;;;;;;5035263;28;20232;-65
2022/06/07 10:02:50;;;;;;;17.83;6.45;;;15.00;99.90;;;;;;5014439;28;20482;-67
2022/06/07 10:06:07;;;;;;;13.32;5.60;;;15.00;99.90;;;;;;5016173;28;20072;-66
2022/06/07 10:08:51;;;;;;;15.63;5.40;;;14.90;99.90;;;;;;5010860;28;20045;-66
2022/06/07 10:11:30;;;;;;;14.15;6.57;;;15.00;99.90;;;;;;5017612;28;20056;-66
2022/06/07 10:14:14;;;;;;;16.90;6.30;;;14.90;99.90;;;;;;5034801;28;20368;-66
2022/06/07 10:16:48;;;;;;;16.58;6.63;;;14.90;99.90;;;;;;5016642;28;20377;-66
2022/06/07 10:19:55;;;;;;;14.77;7.05;;;14.90;99.90;;;;;;5016767;28;20052;-67
2022/06/07 10:22:59;;;;;;;14.85;6.43;;;15.00;99.90;;;;;;4967340;28;20074;-66
2022/06/07 10:25:39;;;;;;;18.38;6.13;;;15.00;99.90;;;;;;4984047;28;20042;-66
2022/06/07 10:28:08;;;;;;;13.18;6.13;;;15.00;99.90;;;;;;5031035;28;20139;-66
2022/06/07 10:30:47;;;;;;;13.48;5.80;;;14.90;99.90;;;;;;5035930;28;20053;-65
2022/06/07 10:33:18;;;;;;;15.35;6.13;;;14.90;99.90;;;;;;5032948;28;20046;-66
2022/06/07 10:35:59;;;;;;;10.45;5.50;;;14.90;99.90;;;;;;5016021;28;20065;-63
2022/06/07 10:38:30;;;;;;;13.65;6.45;;;14.90;99.90;;;;;;5033360;28;20136;-64
2022/06/07 10:41:04;;;;;;;21.35;6.38;;;14.90;99.90;;;;;;5018023;28;20403;-66
2022/06/07 10:43:44;;;;;;;13.75;6.35;;;14.80;99.90;;;;;;5033950;28;20030;-65
2022/06/07 10:46:13;;;;;;;14.82;6.93;;;14.90;99.90;;;;;;5031969;28;20037;-65
2022/06/07 10:48:47;;;;;;;14.15;6.88;;;14.90;99.90;;;;;;5036674;28;20335;-65
2022/06/07 10:54:40;;;;;;;15.93;7.07;;;15.10;99.90;;;;;;5034895;28;20052;-67
2022/06/07 10:57:14;;;;;;;11.30;6.20;;;15.20;99.90;;;;;;5031655;28;20042;-66
2022/06/07 10:59:57;;;;;;;14.52;5.70;;;15.20;99.90;;;;;;5013638;28;20049;-66
2022/06/07 11:02:26;;;;;;;13.90;7.13;;;15.30;99.90;;;;;;5035353;28;20045;-66
2022/06/07 11:10:44;;;;;;;12.70;5.82;;;15.90;99.90;;;;;;5039315;28;20355;-67
2022/06/07 11:13:35;;;;;;;14.35;6.22;;;16.10;99.90;;;;;;5020038;28;20474;-65
2022/06/07 11:16:18;;;;;;;12.35;6.07;;;16.30;99.90;;;;;;5019737;28;20041;-65
2022/06/07 11:18:44;;;;;;;12.85;6.03;;;16.40;99.90;;;;;;5039376;28;20540;-66
2022/06/07 11:21:31;;;;;;;12.85;6.72;;;16.60;99.90;;;;;;5037231;28;20690;-65
2022/06/07 11:24:02;;;;;;;13.27;6.30;;;16.80;99.90;;;;;;5036944;28;20497;-64
2022/06/07 11:26:58;;;;;;;13.02;5.82;;;16.80;99.90;;;;;;5035639;28;20489;-64
2022/06/07 11:29:32;;;;;;;13.30;5.30;;;16.80;99.90;;;;;;5039633;28;20045;-64
2022/06/07 11:32:00;;;;;;;11.00;5.25;;;16.70;99.90;;;;;;5019233;28;20046;-65
2022/06/07 11:34:28;;;;;;;9.68;5.22;;;16.70;99.90;;;;;;5036271;28;20050;-65
2022/06/07 11:37:02;;;;;;;11.90;4.90;;;16.90;99.90;;;;;;5038600;28;20045;-65
2022/06/07 11:39:30;;;;;;;13.10;6.00;;;16.90;99.90;;;;;;5021341;28;20037;-64
2022/06/07 11:42:11;;;;;;;17.73;5.80;;;16.90;99.90;;;;;;5038996;28;20065;-65
2022/06/07 11:44:45;;;;;;;11.73;5.82;;;17.00;99.90;;;;;;5036988;28;20175;-65
2022/06/07 11:47:11;;;;;;;12.95;5.25;;;17.20;99.90;;;;;;5036982;28;20056;-66
2022/06/07 11:49:57;;;;;;;13.52;5.25;;;17.30;99.90;;;;;;5037838;28;20111;-66
2022/06/07 11:52:30;;;;;;;11.60;5.00;;;17.50;99.90;;;;;;5038463;28;20063;-66
2022/06/07 11:55:18;;;;;;;10.05;4.38;;;17.60;99.90;;;;;;5035978;28;20068;-65
2022/06/07 11:57:52;;;;;;;9.63;5.57;;;17.70;99.90;;;;;;5034334;28;20045;-65
2022/06/07 12:00:18;;;;;;;11.77;5.20;;;17.90;99.90;;;;;;5037210;28;20072;-65
2022/06/07 12:03:06;;;;;;;15.23;5.13;;;17.80;99.90;;;;;;5020749;28;20087;-65
2022/06/07 12:05:42;;;;;;;13.73;4.93;;;17.80;99.90;;;;;;5033981;28;20501;-66
2022/06/07 12:08:29;;;;;;;11.57;4.80;;;17.70;99.90;;;;;;5019524;28;20041;-66
2022/06/07 12:11:20;;;;;;;13.05;4.93;;;17.60;99.90;;;;;;5035807;28;20045;-65
2022/06/07 12:13:58;;;;;;;13.02;5.38;;;17.50;99.90;;;;;;5037543;28;20041;-65
2022/06/07 12:16:42;;;;;;;10.93;5.53;;;17.40;99.90;;;;;;5001107;28;21030;-64
2022/06/07 12:19:20;;;;;;;14.57;6.15;;;17.30;99.90;;;;;;5038539;28;20033;-65
2022/06/07 12:21:56;;;;;;;10.82;5.38;;;17.50;99.90;;;;;;5020711;28;20094;-66
2022/06/07 12:24:23;;;;;;;13.05;5.28;;;17.70;99.90;;;;;;5017860;28;20041;-65
2022/06/07 12:26:48;;;;;;;11.98;5.35;;;17.80;99.90;;;;;;5036626;28;20037;-66
2022/06/07 12:29:17;;;;;;;10.95;4.68;;;17.90;99.90;;;;;;5037632;28;20339;-65
2022/06/07 12:31:51;;;;;;;11.05;5.47;;;17.90;99.90;;;;;;5038297;28;20036;-65
2022/06/07 12:34:24;;;;;;;12.60;4.90;;;18.10;99.90;;;;;;5035681;27;20055;-66
2022/06/07 12:37:26;;;;;;;11.87;5.43;;;18.30;99.90;;;;;;5015232;28;20065;-65
2022/06/07 12:39:56;;;;;;;12.40;4.88;;;18.20;99.90;;;;;;5036173;28;20366;-65
2022/06/07 12:42:24;;;;;;;10.75;4.80;;;18.00;99.90;;;;;;5018530;28;20358;-65
2022/06/07 12:44:53;;;;;;;15.82;5.63;;;18.00;99.90;;;;;;5017435;28;20427;-64
2022/06/07 12:47:22;;;;;;;10.20;5.03;;;17.90;99.90;;;;;;5035038;28;20493;-65
2022/06/07 12:49:48;;;;;;;11.63;5.00;;;18.00;99.90;;;;;;5038041;28;20101;-65
2022/06/07 12:52:26;;;;;;;12.27;5.68;;;18.00;99.90;;;;;;5019198;28;20045;-66
2022/06/07 12:55:01;;;;;;;11.80;5.28;;;18.00;99.90;;;;;;5027966;28;20085;-65
2022/06/07 12:57:31;;;;;;;11.30;5.32;;;18.30;99.90;;;;;;5034856;28;20033;-65
2022/06/07 13:00:19;;;;;;;10.80;5.07;;;18.30;99.90;;;;;;5019673;28;20090;-66
2022/06/07 13:03:03;;;;;;;9.52;4.72;;;18.50;99.90;;;;;;5037438;28;20105;-65
2022/06/07 13:05:36;;;;;;;11.52;4.88;;;18.50;99.90;;;;;;5032836;28;20027;-65
2022/06/07 13:08:12;;;;;;;14.63;5.55;;;18.50;99.90;;;;;;5035500;28;20033;-65
2022/06/07 13:10:39;;;;;;;11.32;5.80;;;18.40;99.90;;;;;;5035635;28;20040;-65
2022/06/07 13:13:16;;;;;;;13.07;5.80;;;18.40;99.90;;;;;;5018215;28;20048;-64
2022/06/07 13:15:55;;;;;;;10.48;5.28;;;18.40;99.90;;;;;;5035577;28;20042;-65